Eagle, Michigan
Current Conditions -  °F | °C
As of 8:20 AM on Sunday 23 Nov 2014 (Local Time) from KLAN Reporting Station
Overcast Overcast  
Wind Chill: 43°   Ceiling: 3000
Heat Index: 48°   Visibility: 8mi
Dew Point: 43°   Wind: 12mph
Humidity: 83%   Direction: 190°S
Pressure: 29.87"   Gusts: NA
Location:  42.81°N, 84.79°W
Report Text: KLAN 231320Z 19010KT 8SM OVC030 09/06 A2987 RMK AO2 T00890061 $
Loading
Personal Weather Stations






























Interactive Weather Map New forecast layout! Learn more

10-Day Weather Forecast

Advertisements
Track Severe Weather on mobile